sensor_id;sensor_type;location;lat;lon;timestamp;pressure;altitude;pressure_sealevel;temperature;humidity
51261;BME280;61705;46.228;24.812;2024-01-07T00:02:09;96237.72;;;1.22;100.00
51261;BME280;61705;46.228;24.812;2024-01-07T00:04:36;96237.78;;;1.20;100.00
51261;BME280;61705;46.228;24.812;2024-01-07T00:07:06;96239.50;;;1.19;100.00
51261;BME280;61705;46.228;24.812;2024-01-07T00:09:33;96235.09;;;1.23;100.00
51261;BME280;61705;46.228;24.812;2024-01-07T00:12:01;96230.00;;;1.18;100.00
51261;BME280;61705;46.228;24.812;2024-01-07T00:14:30;96234.44;;;1.16;100.00
51261;BME280;61705;46.228;24.812;2024-01-07T00:16:58;96242.25;;;1.16;100.00
51261;BME280;61705;46.228;24.812;2024-01-07T00:19:24;96244.84;;;1.16;100.00
51261;BME280;61705;46.228;24.812;2024-01-07T00:21:51;96240.06;;;1.03;100.00
51261;BME280;61705;46.228;24.812;2024-01-07T00:24:18;96252.72;;;0.85;100.00
51261;BME280;61705;46.228;24.812;2024-01-07T00:26:44;96257.13;;;0.83;100.00
51261;BME280;61705;46.228;24.812;2024-01-07T00:29:11;96253.69;;;0.81;100.00
51261;BME280;61705;46.228;24.812;2024-01-07T00:31:37;96261.38;;;0.86;100.00
51261;BME280;61705;46.228;24.812;2024-01-07T00:34:04;96256.78;;;0.94;100.00
51261;BME280;61705;46.228;24.812;2024-01-07T00:36:31;96252.25;;;1.01;100.00
51261;BME280;61705;46.228;24.812;2024-01-07T00:38:58;96245.47;;;0.97;100.00
51261;BME280;61705;46.228;24.812;2024-01-07T00:41:24;96249.94;;;0.91;100.00
51261;BME280;61705;46.228;24.812;2024-01-07T00:43:51;96242.28;;;0.87;100.00
51261;BME280;61705;46.228;24.812;2024-01-07T00:46:17;96245.81;;;0.84;100.00
51261;BME280;61705;46.228;24.812;2024-01-07T00:48:44;96252.63;;;0.88;100.00
51261;BME280;61705;46.228;24.812;2024-01-07T00:51:11;96248.25;;;0.89;100.00
51261;BME280;61705;46.228;24.812;2024-01-07T00:53:37;96246.56;;;0.88;100.00
51261;BME280;61705;46.228;24.812;2024-01-07T00:56:04;96243.03;;;0.90;100.00
51261;BME280;61705;46.228;24.812;2024-01-07T00:58:31;96239.44;;;0.94;100.00
51261;BME280;61705;46.228;24.812;2024-01-07T01:00:57;96243.78;;;0.94;100.00
51261;BME280;61705;46.228;24.812;2024-01-07T01:03:26;96230.69;;;0.97;100.00
51261;BME280;61705;46.228;24.812;2024-01-07T01:05:53;96238.41;;;1.00;100.00
51261;BME280;61705;46.228;24.812;2024-01-07T01:08:20;96234.00;;;1.02;100.00
51261;BME280;61705;46.228;24.812;2024-01-07T01:10:46;96222.00;;;0.98;100.00
51261;BME280;61705;46.228;24.812;2024-01-07T01:13:13;96216.19;;;0.90;100.00
51261;BME280;61705;46.228;24.812;2024-01-07T01:15:39;96210.34;;;0.82;100.00
51261;BME280;61705;46.228;24.812;2024-01-07T01:18:06;96208.56;;;0.84;100.00
51261;BME280;61705;46.228;24.812;2024-01-07T01:20:35;96198.22;;;0.82;100.00
51261;BME280;61705;46.228;24.812;2024-01-07T01:23:02;96200.78;;;0.84;100.00
51261;BME280;61705;46.228;24.812;2024-01-07T01:25:28;96202.25;;;0.92;100.00
51261;BME280;61705;46.228;24.812;2024-01-07T01:27:56;96205.47;;;0.99;100.00
51261;BME280;61705;46.228;24.812;2024-01-07T01:30:23;96203.59;;;1.04;100.00
51261;BME280;61705;46.228;24.812;2024-01-07T01:32:49;96209.03;;;0.97;100.00
51261;BME280;61705;46.228;24.812;2024-01-07T01:35:16;96215.69;;;0.77;100.00
51261;BME280;61705;46.228;24.812;2024-01-07T01:37:43;96219.25;;;0.75;100.00
51261;BME280;61705;46.228;24.812;2024-01-07T01:40:09;96219.25;;;0.75;100.00
51261;BME280;61705;46.228;24.812;2024-01-07T01:42:36;96220.31;;;0.67;100.00
51261;BME280;61705;46.228;24.812;2024-01-07T01:45:03;96211.16;;;0.56;100.00
51261;BME280;61705;46.228;24.812;2024-01-07T01:47:30;96204.38;;;0.50;100.00
51261;BME280;61705;46.228;24.812;2024-01-07T01:49:57;96197.50;;;0.49;100.00
51261;BME280;61705;46.228;24.812;2024-01-07T01:52:24;96193.22;;;0.46;100.00
51261;BME280;61705;46.228;24.812;2024-01-07T01:54:51;96196.56;;;0.52;100.00
51261;BME280;61705;46.228;24.812;2024-01-07T01:57:19;96191.38;;;0.50;100.00
51261;BME280;61705;46.228;24.812;2024-01-07T01:59:47;96189.56;;;0.54;100.00
51261;BME280;61705;46.228;24.812;2024-01-07T02:02:13;96181.16;;;0.74;100.00
51261;BME280;61705;46.228;24.812;2024-01-07T02:04:40;96176.69;;;0.79;100.00
51261;BME280;61705;46.228;24.812;2024-01-07T02:07:07;96174.91;;;0.79;100.00
51261;BME280;61705;46.228;24.812;2024-01-07T02:09:34;96180.31;;;0.73;100.00
51261;BME280;61705;46.228;24.812;2024-01-07T02:12:03;96184.16;;;0.60;100.00
51261;BME280;61705;46.228;24.812;2024-01-07T02:14:30;96181.81;;;0.52;100.00
51261;BME280;61705;46.228;24.812;2024-01-07T02:16:56;96176.44;;;0.58;100.00
51261;BME280;61705;46.228;24.812;2024-01-07T02:19:23;96179.03;;;0.58;100.00
51261;BME280;61705;46.228;24.812;2024-01-07T02:21:50;96170.28;;;0.61;100.00
51261;BME280;61705;46.228;24.812;2024-01-07T02:24:17;96165.31;;;0.53;100.00
51261;BME280;61705;46.228;24.812;2024-01-07T02:26:44;96172.84;;;0.62;100.00
51261;BME280;61705;46.228;24.812;2024-01-07T02:29:10;96170.91;;;0.69;100.00
51261;BME280;61705;46.228;24.812;2024-01-07T02:31:37;96161.44;;;0.66;100.00
51261;BME280;61705;46.228;24.812;2024-01-07T02:34:03;96150.97;;;0.68;100.00
51261;BME280;61705;46.228;24.812;2024-01-07T02:36:30;96145.78;;;0.68;100.00
51261;BME280;61705;46.228;24.812;2024-01-07T02:38:57;96162.03;;;0.75;100.00
51261;BME280;61705;46.228;24.812;2024-01-07T02:41:23;96163.69;;;0.77;100.00
51261;BME280;61705;46.228;24.812;2024-01-07T02:43:52;96149.44;;;0.62;100.00
51261;BME280;61705;46.228;24.812;2024-01-07T02:46:19;96141.00;;;0.56;100.00
51261;BME280;61705;46.228;24.812;2024-01-07T02:48:45;96132.78;;;0.68;100.00
51261;BME280;61705;46.228;24.812;2024-01-07T02:51:12;96138.75;;;0.71;100.00
51261;BME280;61705;46.228;24.812;2024-01-07T02:53:39;96130.34;;;0.63;100.00
51261;BME280;61705;46.228;24.812;2024-01-07T02:56:05;96125.50;;;0.51;100.00
51261;BME280;61705;46.228;24.812;2024-01-07T02:58:35;96120.66;;;0.40;100.00
51261;BME280;61705;46.228;24.812;2024-01-07T03:01:01;96115.44;;;0.42;100.00
51261;BME280;61705;46.228;24.812;2024-01-07T03:03:28;96126.50;;;0.47;100.00
51261;BME280;61705;46.228;24.812;2024-01-07T03:05:56;96112.44;;;0.54;100.00
51261;BME280;61705;46.228;24.812;2024-01-07T03:08:22;96120.38;;;0.50;100.00
51261;BME280;61705;46.228;24.812;2024-01-07T03:10:49;96110.06;;;0.48;100.00
51261;BME280;61705;46.228;24.812;2024-01-07T03:13:16;96116.03;;;0.50;100.00
51261;BME280;61705;46.228;24.812;2024-01-07T03:15:42;96116.66;;;0.58;100.00
51261;BME280;61705;46.228;24.812;2024-01-07T03:18:09;96104.53;;;0.57;100.00
51261;BME280;61705;46.228;24.812;2024-01-07T03:20:35;96115.03;;;0.54;100.00
51261;BME280;61705;46.228;24.812;2024-01-07T03:23:02;96108.19;;;0.52;100.00
51261;BME280;61705;46.228;24.812;2024-01-07T03:25:29;96111.59;;;0.54;100.00
51261;BME280;61705;46.228;24.812;2024-01-07T03:27:55;96099.50;;;0.53;100.00
51261;BME280;61705;46.228;24.812;2024-01-07T03:30:22;96093.38;;;0.55;100.00
51261;BME280;61705;46.228;24.812;2024-01-07T03:32:49;96092.47;;;0.56;100.00
51261;BME280;61705;46.228;24.812;2024-01-07T03:35:15;96097.75;;;0.53;100.00
51261;BME280;61705;46.228;24.812;2024-01-07T03:37:42;96096.94;;;0.51;100.00
51261;BME280;61705;46.228;24.812;2024-01-07T03:40:12;96096.94;;;0.51;100.00
51261;BME280;61705;46.228;24.812;2024-01-07T03:42:39;96085.88;;;0.44;100.00
51261;BME280;61705;46.228;24.812;2024-01-07T03:45:06;96079.75;;;0.47;100.00
51261;BME280;61705;46.228;24.812;2024-01-07T03:47:32;96075.47;;;0.46;100.00
51261;BME280;61705;46.228;24.812;2024-01-07T03:49:59;96067.59;;;0.47;100.00
51261;BME280;61705;46.228;24.812;2024-01-07T03:52:26;96085.59;;;0.54;100.00
51261;BME280;61705;46.228;24.812;2024-01-07T03:54:52;96084.66;;;0.56;100.00
51261;BME280;61705;46.228;24.812;2024-01-07T03:57:19;96082.09;;;0.55;100.00
51261;BME280;61705;46.228;24.812;2024-01-07T03:59:45;96091.59;;;0.56;100.00
51261;BME280;61705;46.228;24.812;2024-01-07T04:02:12;96088.00;;;0.60;100.00
51261;BME280;61705;46.228;24.812;2024-01-07T04:04:42;96092.34;;;0.59;100.00
51261;BME280;61705;46.228;24.812;2024-01-07T04:07:09;96084.69;;;0.55;100.00
51261;BME280;61705;46.228;24.812;2024-01-07T04:09:36;96088.94;;;0.57;100.00
51261;BME280;61705;46.228;24.812;2024-01-07T04:12:03;96081.13;;;0.59;100.00
51261;BME280;61705;46.228;24.812;2024-01-07T04:14:30;96088.06;;;0.58;100.00
51261;BME280;61705;46.228;24.812;2024-01-07T04:17:00;96084.59;;;0.58;100.00
51261;BME280;61705;46.228;24.812;2024-01-07T04:19:26;96074.00;;;0.64;100.00
51261;BME280;61705;46.228;24.812;2024-01-07T04:21:53;96071.47;;;0.62;100.00
51261;BME280;61705;46.228;24.812;2024-01-07T04:24:20;96077.53;;;0.61;100.00
51261;BME280;61705;46.228;24.812;2024-01-07T04:26:46;96080.28;;;0.58;100.00
51261;BME280;61705;46.228;24.812;2024-01-07T04:29:13;96073.16;;;0.63;100.00
51261;BME280;61705;46.228;24.812;2024-01-07T04:31:40;96066.97;;;0.67;100.00
51261;BME280;61705;46.228;24.812;2024-01-07T04:34:06;96072.78;;;0.76;100.00
51261;BME280;61705;46.228;24.812;2024-01-07T04:36:33;96070.81;;;0.82;100.00
51261;BME280;61705;46.228;24.812;2024-01-07T04:39:00;96072.41;;;0.86;100.00
51261;BME280;61705;46.228;24.812;2024-01-07T04:41:27;96066.25;;;0.89;100.00
51261;BME280;61705;46.228;24.812;2024-01-07T04:43:53;96068.00;;;0.88;100.00
51261;BME280;61705;46.228;24.812;2024-01-07T04:46:20;96066.16;;;0.92;100.00
51261;BME280;61705;46.228;24.812;2024-01-07T04:48:46;96057.38;;;0.96;100.00
51261;BME280;61705;46.228;24.812;2024-01-07T04:51:13;96054.69;;;0.98;100.00
51261;BME280;61705;46.228;24.812;2024-01-07T04:53:40;96052.91;;;1.00;100.00
51261;BME280;61705;46.228;24.812;2024-01-07T04:56:06;96053.66;;;1.03;100.00
51261;BME280;61705;46.228;24.812;2024-01-07T04:58:33;96053.59;;;1.05;100.00
51261;BME280;61705;46.228;24.812;2024-01-07T05:01:00;96048.28;;;1.08;100.00
51261;BME280;61705;46.228;24.812;2024-01-07T05:03:26;96049.03;;;1.11;100.00
51261;BME280;61705;46.228;24.812;2024-01-07T05:05:53;96047.38;;;1.09;100.00
51261;BME280;61705;46.228;24.812;2024-01-07T05:08:21;96052.53;;;1.10;100.00
51261;BME280;61705;46.228;24.812;2024-01-07T05:10:52;96053.38;;;1.11;100.00
51261;BME280;61705;46.228;24.812;2024-01-07T05:13:18;96054.06;;;1.16;100.00
51261;BME280;61705;46.228;24.812;2024-01-07T05:15:45;96048.84;;;1.16;100.00
51261;BME280;61705;46.228;24.812;2024-01-07T05:18:13;96046.53;;;1.08;100.00
51261;BME280;61705;46.228;24.812;2024-01-07T05:20:44;96047.94;;;0.92;100.00
51261;BME280;61705;46.228;24.812;2024-01-07T05:23:10;96037.16;;;0.78;100.00
51261;BME280;61705;46.228;24.812;2024-01-07T05:25:37;96034.66;;;0.75;100.00
51261;BME280;61705;46.228;24.812;2024-01-07T05:28:04;96035.72;;;0.69;100.00
51261;BME280;61705;46.228;24.812;2024-01-07T05:30:30;96033.06;;;0.70;100.00
51261;BME280;61705;46.228;24.812;2024-01-07T05:32:57;96032.47;;;0.62;100.00
51261;BME280;61705;46.228;24.812;2024-01-07T05:35:24;96031.78;;;0.57;100.00
51261;BME280;61705;46.228;24.812;2024-01-07T05:37:50;96027.56;;;0.53;100.00
51261;BME280;61705;46.228;24.812;2024-01-07T05:40:17;96029.44;;;0.50;100.00
51261;BME280;61705;46.228;24.812;2024-01-07T05:42:44;96029.53;;;0.46;100.00
51261;BME280;61705;46.228;24.812;2024-01-07T05:45:10;96029.13;;;0.32;100.00
51261;BME280;61705;46.228;24.812;2024-01-07T05:47:37;96022.56;;;0.20;100.00
51261;BME280;61705;46.228;24.812;2024-01-07T05:50:04;96014.81;;;0.19;100.00
51261;BME280;61705;46.228;24.812;2024-01-07T05:52:30;96019.19;;;0.17;100.00
51261;BME280;61705;46.228;24.812;2024-01-07T05:54:57;96012.56;;;0.08;100.00
51261;BME280;61705;46.228;24.812;2024-01-07T05:57:24;96010.72;;;0.12;100.00
51261;BME280;61705;46.228;24.812;2024-01-07T05:59:50;96003.03;;;0.09;100.00
51261;BME280;61705;46.228;24.812;2024-01-07T06:02:20;96010.06;;;0.05;100.00
51261;BME280;61705;46.228;24.812;2024-01-07T06:04:49;96007.19;;;0.14;100.00
51261;BME280;61705;46.228;24.812;2024-01-07T06:07:15;96005.16;;;0.24;100.00
51261;BME280;61705;46.228;24.812;2024-01-07T06:09:42;96004.94;;;0.30;100.00
51261;BME280;61705;46.228;24.812;2024-01-07T06:12:09;96008.69;;;0.21;100.00
51261;BME280;61705;46.228;24.812;2024-01-07T06:14:36;96005.56;;;0.10;100.00
51261;BME280;61705;46.228;24.812;2024-01-07T06:17:02;95995.16;;;0.10;100.00
51261;BME280;61705;46.228;24.812;2024-01-07T06:19:29;95998.66;;;0.11;100.00
51261;BME280;61705;46.228;24.812;2024-01-07T06:21:56;95994.28;;;0.11;100.00
51261;BME280;61705;46.228;24.812;2024-01-07T06:24:23;95987.16;;;0.18;100.00
51261;BME280;61705;46.228;24.812;2024-01-07T06:26:50;95988.78;;;0.20;100.00
51261;BME280;61705;46.228;24.812;2024-01-07T06:29:16;95983.59;;;0.20;100.00
51261;BME280;61705;46.228;24.812;2024-01-07T06:31:43;95989.44;;;0.27;100.00
51261;BME280;61705;46.228;24.812;2024-01-07T06:34:11;95987.28;;;0.41;100.00
51261;BME280;61705;46.228;24.812;2024-01-07T06:36:42;95984.44;;;0.47;100.00
51261;BME280;61705;46.228;24.812;2024-01-07T06:39:09;95984.16;;;0.57;100.00
51261;BME280;61705;46.228;24.812;2024-01-07T06:41:35;95986.84;;;0.54;100.00
51261;BME280;61705;46.228;24.812;2024-01-07T06:44:02;95976.34;;;0.57;100.00
51261;BME280;61705;46.228;24.812;2024-01-07T06:46:29;95978.09;;;0.56;100.00
51261;BME280;61705;46.228;24.812;2024-01-07T06:48:55;95978.69;;;0.64;100.00
51261;BME280;61705;46.228;24.812;2024-01-07T06:51:22;95969.66;;;0.75;100.00
51261;BME280;61705;46.228;24.812;2024-01-07T06:53:49;95973.53;;;0.88;100.00
51261;BME280;61705;46.228;24.812;2024-01-07T06:56:16;95968.94;;;0.96;100.00
51261;BME280;61705;46.228;24.812;2024-01-07T06:58:43;95966.06;;;1.04;100.00
51261;BME280;61705;46.228;24.812;2024-01-07T07:01:10;95967.47;;;1.12;100.00
51261;BME280;61705;46.228;24.812;2024-01-07T07:03:40;95960.41;;;1.16;100.00
51261;BME280;61705;46.228;24.812;2024-01-07T07:06:08;95958.72;;;1.15;100.00
51261;BME280;61705;46.228;24.812;2024-01-07T07:08:34;95963.75;;;1.19;100.00
51261;BME280;61705;46.228;24.812;2024-01-07T07:11:01;95954.94;;;1.24;100.00
51261;BME280;61705;46.228;24.812;2024-01-07T07:13:28;95953.09;;;1.27;100.00
51261;BME280;61705;46.228;24.812;2024-01-07T07:15:55;95949.50;;;1.30;100.00
51261;BME280;61705;46.228;24.812;2024-01-07T07:18:21;95952.84;;;1.33;100.00
51261;BME280;61705;46.228;24.812;2024-01-07T07:20:48;95952.16;;;1.28;100.00
51261;BME280;61705;46.228;24.812;2024-01-07T07:23:15;95953.34;;;1.19;100.00
51261;BME280;61705;46.228;24.812;2024-01-07T07:25:41;95940.56;;;1.13;100.00
51261;BME280;61705;46.228;24.812;2024-01-07T07:28:08;95950.69;;;1.21;100.00
51261;BME280;61705;46.228;24.812;2024-01-07T07:30:34;95944.06;;;1.36;100.00
51261;BME280;61705;46.228;24.812;2024-01-07T07:33:01;95942.78;;;1.48;100.00
51261;BME280;61705;46.228;24.812;2024-01-07T07:35:28;95939.78;;;1.58;100.00
51261;BME280;61705;46.228;24.812;2024-01-07T07:37:56;95937.56;;;1.71;100.00
51261;BME280;61705;46.228;24.812;2024-01-07T07:40:23;95939.25;;;1.72;100.00
51261;BME280;61705;46.228;24.812;2024-01-07T07:42:50;95943.09;;;1.84;100.00
51261;BME280;61705;46.228;24.812;2024-01-07T07:45:17;95935.00;;;1.92;100.00
51261;BME280;61705;46.228;24.812;2024-01-07T07:47:44;95942.56;;;1.98;100.00
51261;BME280;61705;46.228;24.812;2024-01-07T07:50:12;95929.53;;;1.98;100.00
51261;BME280;61705;46.228;24.812;2024-01-07T07:52:39;95937.13;;;2.04;100.00
51261;BME280;61705;46.228;24.812;2024-01-07T07:55:07;95930.69;;;2.12;100.00
51261;BME280;61705;46.228;24.812;2024-01-07T07:57:34;95930.38;;;2.20;100.00
51261;BME280;61705;46.228;24.812;2024-01-07T08:00:01;95921.78;;;2.18;100.00
51261;BME280;61705;46.228;24.812;2024-01-07T08:02:30;95916.41;;;2.23;100.00
51261;BME280;61705;46.228;24.812;2024-01-07T08:04:57;95916.28;;;2.26;100.00
51261;BME280;61705;46.228;24.812;2024-01-07T08:07:23;95920.44;;;2.30;100.00
51261;BME280;61705;46.228;24.812;2024-01-07T08:09:50;95900.94;;;2.38;100.00
51261;BME280;61705;46.228;24.812;2024-01-07T08:12:16;95911.50;;;2.35;100.00
51261;BME280;61705;46.228;24.812;2024-01-07T08:14:43;95911.56;;;2.34;100.00
51261;BME280;61705;46.228;24.812;2024-01-07T08:17:10;95909.00;;;2.32;100.00
51261;BME280;61705;46.228;24.812;2024-01-07T08:19:36;95903.50;;;2.40;100.00
51261;BME280;61705;46.228;24.812;2024-01-07T08:22:03;95904.94;;;2.47;100.00
51261;BME280;61705;46.228;24.812;2024-01-07T08:24:31;95904.94;;;2.47;100.00
51261;BME280;61705;46.228;24.812;2024-01-07T08:26:57;95904.03;;;2.48;100.00
51261;BME280;61705;46.228;24.812;2024-01-07T08:29:24;95900.31;;;2.54;100.00
51261;BME280;61705;46.228;24.812;2024-01-07T08:31:51;95896.00;;;2.53;100.00
51261;BME280;61705;46.228;24.812;2024-01-07T08:34:20;95894.31;;;2.52;100.00
51261;BME280;61705;46.228;24.812;2024-01-07T08:36:47;95893.25;;;2.56;100.00
51261;BME280;61705;46.228;24.812;2024-01-07T08:39:16;95892.16;;;2.61;100.00
51261;BME280;61705;46.228;24.812;2024-01-07T08:41:43;95883.03;;;2.72;100.00
51261;BME280;61705;46.228;24.812;2024-01-07T08:44:10;95883.25;;;2.86;100.00
51261;BME280;61705;46.228;24.812;2024-01-07T08:46:37;95873.28;;;2.96;100.00
51261;BME280;61705;46.228;24.812;2024-01-07T08:49:03;95867.94;;;2.99;100.00
51261;BME280;61705;46.228;24.812;2024-01-07T08:51:30;95871.31;;;3.01;100.00
51261;BME280;61705;46.228;24.812;2024-01-07T08:53:59;95865.03;;;3.05;100.00
51261;BME280;61705;46.228;24.812;2024-01-07T08:56:25;95851.66;;;3.13;100.00
51261;BME280;61705;46.228;24.812;2024-01-07T08:58:52;95852.25;;;3.18;100.00
51261;BME280;61705;46.228;24.812;2024-01-07T09:01:19;95842.34;;;3.26;100.00
51261;BME280;61705;46.228;24.812;2024-01-07T09:03:46;95842.81;;;3.34;100.00
51261;BME280;61705;46.228;24.812;2024-01-07T09:08:49;95844.59;;;3.33;100.00
51261;BME280;61705;46.228;24.812;2024-01-07T09:11:18;95843.38;;;3.41;100.00
51261;BME280;61705;46.228;24.812;2024-01-07T09:13:45;95841.19;;;3.50;100.00
51261;BME280;61705;46.228;24.812;2024-01-07T09:16:14;95837.38;;;3.58;100.00
51261;BME280;61705;46.228;24.812;2024-01-07T09:18:42;95835.41;;;3.63;100.00
51261;BME280;61705;46.228;24.812;2024-01-07T09:21:11;95826.25;;;3.71;100.00
51261;BME280;61705;46.228;24.812;2024-01-07T09:23:38;95826.03;;;3.76;100.00
51261;BME280;61705;46.228;24.812;2024-01-07T09:26:05;95818.81;;;3.81;100.00
51261;BME280;61705;46.228;24.812;2024-01-07T09:28:32;95820.84;;;3.93;100.00
51261;BME280;61705;46.228;24.812;2024-01-07T09:30:58;95817.16;;;3.97;100.00
51261;BME280;61705;46.228;24.812;2024-01-07T09:33:25;95807.16;;;4.06;100.00
51261;BME280;61705;46.228;24.812;2024-01-07T09:35:52;95807.69;;;4.12;100.00
51261;BME280;61705;46.228;24.812;2024-01-07T09:38:27;95808.53;;;4.30;100.00
51261;BME280;61705;46.228;24.812;2024-01-07T09:40:54;95801.00;;;4.41;100.00
51261;BME280;61705;46.228;24.812;2024-01-07T09:43:21;95809.03;;;4.54;100.00
51261;BME280;61705;46.228;24.812;2024-01-07T09:45:49;95807.72;;;4.63;100.00
51261;BME280;61705;46.228;24.812;2024-01-07T09:48:16;95805.19;;;4.61;100.00
51261;BME280;61705;46.228;24.812;2024-01-07T09:50:43;95806.41;;;4.71;100.00
51261;BME280;61705;46.228;24.812;2024-01-07T09:53:15;95802.31;;;4.83;100.00
51261;BME280;61705;46.228;24.812;2024-01-07T09:56:00;95799.88;;;4.96;100.00
51261;BME280;61705;46.228;24.812;2024-01-07T09:58:32;95793.13;;;5.08;100.00
51261;BME280;61705;46.228;24.812;2024-01-07T10:00:59;95797.63;;;5.21;100.00
51261;BME280;61705;46.228;24.812;2024-01-07T10:03:26;95793.47;;;5.33;100.00
51261;BME280;61705;46.228;24.812;2024-01-07T10:05:52;95789.25;;;5.46;100.00
51261;BME280;61705;46.228;24.812;2024-01-07T10:08:21;95786.06;;;5.57;100.00
51261;BME280;61705;46.228;24.812;2024-01-07T10:10:48;95775.13;;;5.65;100.00
51261;BME280;61705;46.228;24.812;2024-01-07T10:13:17;95774.97;;;5.68;100.00
51261;BME280;61705;46.228;24.812;2024-01-07T10:15:43;95770.88;;;5.78;100.00
51261;BME280;61705;46.228;24.812;2024-01-07T10:18:10;95770.63;;;5.83;100.00
51261;BME280;61705;46.228;24.812;2024-01-07T10:20:37;95777.88;;;5.93;100.00
51261;BME280;61705;46.228;24.812;2024-01-07T10:23:09;95776.53;;;6.02;100.00
51261;BME280;61705;46.228;24.812;2024-01-07T10:25:36;95769.03;;;6.10;100.00
51261;BME280;61705;46.228;24.812;2024-01-07T10:28:03;95755.22;;;6.23;100.00
51261;BME280;61705;46.228;24.812;2024-01-07T10:30:30;95752.22;;;6.29;100.00
51261;BME280;61705;46.228;24.812;2024-01-07T10:32:58;95755.25;;;6.37;100.00
51261;BME280;61705;46.228;24.812;2024-01-07T10:35:28;95750.72;;;6.39;100.00
51261;BME280;61705;46.228;24.812;2024-01-07T10:37:56;95742.31;;;6.34;100.00
51261;BME280;61705;46.228;24.812;2024-01-07T10:40:22;95744.19;;;6.46;100.00
51261;BME280;61705;46.228;24.812;2024-01-07T10:42:49;95735.50;;;6.60;100.00
51261;BME280;61705;46.228;24.812;2024-01-07T10:45:17;95743.16;;;6.63;100.00
51261;BME280;61705;46.228;24.812;2024-01-07T10:47:44;95738.47;;;6.68;100.00
51261;BME280;61705;46.228;24.812;2024-01-07T10:50:14;95735.75;;;6.70;100.00
51261;BME280;61705;46.228;24.812;2024-01-07T10:52:41;95735.00;;;6.68;100.00
51261;BME280;61705;46.228;24.812;2024-01-07T10:55:09;95729.75;;;6.68;100.00
51261;BME280;61705;46.228;24.812;2024-01-07T10:57:41;95731.44;;;6.69;100.00
51261;BME280;61705;46.228;24.812;2024-01-07T11:00:09;95735.75;;;6.84;100.00
51261;BME280;61705;46.228;24.812;2024-01-07T11:05:33;95727.06;;;7.10;100.00
51261;BME280;61705;46.228;24.812;2024-01-07T11:08:13;95725.75;;;7.18;100.00
51261;BME280;61705;46.228;24.812;2024-01-07T11:10:47;95718.72;;;7.18;100.00
51261;BME280;61705;46.228;24.812;2024-01-07T11:13:31;95724.00;;;7.18;100.00
51261;BME280;61705;46.228;24.812;2024-01-07T11:15:58;95723.38;;;7.27;100.00
51261;BME280;61705;46.228;24.812;2024-01-07T11:18:24;95716.16;;;7.31;100.00
51261;BME280;61705;46.228;24.812;2024-01-07T11:20:58;95722.59;;;7.40;100.00
51261;BME280;61705;46.228;24.812;2024-01-07T11:23:29;95721.47;;;7.44;100.00
51261;BME280;61705;46.228;24.812;2024-01-07T11:26:00;95721.84;;;7.38;100.00
51261;BME280;61705;46.228;24.812;2024-01-07T11:31:13;95727.16;;;7.23;100.00
51261;BME280;61705;46.228;24.812;2024-01-07T11:33:47;95728.47;;;7.16;100.00
51261;BME280;61705;46.228;24.812;2024-01-07T11:36:25;95734.16;;;6.96;100.00
51261;BME280;61705;46.228;24.812;2024-01-07T11:38:53;95741.84;;;6.84;100.00
51261;BME280;61705;46.228;24.812;2024-01-07T11:41:24;95730.69;;;6.67;100.00
51261;BME280;61705;46.228;24.812;2024-01-07T11:43:59;95732.66;;;6.49;100.00
51261;BME280;61705;46.228;24.812;2024-01-07T11:46:38;95740.22;;;6.39;100.00
51261;BME280;61705;46.228;24.812;2024-01-07T11:49:04;95740.81;;;6.30;100.00
51261;BME280;61705;46.228;24.812;2024-01-07T11:51:34;95749.31;;;6.19;100.00
51261;BME280;61705;46.228;24.812;2024-01-07T11:54:05;95756.69;;;6.12;100.00
51261;BME280;61705;46.228;24.812;2024-01-07T11:56:37;95761.34;;;6.07;100.00
51261;BME280;61705;46.228;24.812;2024-01-07T11:59:04;95760.88;;;6.01;100.00
51261;BME280;61705;46.228;24.812;2024-01-07T12:01:35;95754.28;;;5.93;100.00
51261;BME280;61705;46.228;24.812;2024-01-07T12:04:14;95756.16;;;5.91;100.00
51261;BME280;61705;46.228;24.812;2024-01-07T12:06:41;95759.59;;;5.92;100.00
51261;BME280;61705;46.228;24.812;2024-01-07T12:09:11;95758.94;;;5.88;100.00
51261;BME280;61705;46.228;24.812;2024-01-07T12:11:38;95754.53;;;5.89;100.00
51261;BME280;61705;46.228;24.812;2024-01-07T12:14:10;95757.16;;;5.89;100.00
51261;BME280;61705;46.228;24.812;2024-01-07T12:16:37;95760.69;;;5.88;100.00
51261;BME280;61705;46.228;24.812;2024-01-07T12:19:04;95762.56;;;5.86;100.00
51261;BME280;61705;46.228;24.812;2024-01-07T12:21:31;95765.94;;;5.88;100.00
51261;BME280;61705;46.228;24.812;2024-01-07T12:24:00;95757.16;;;5.89;100.00
51261;BME280;61705;46.228;24.812;2024-01-07T12:26:27;95757.91;;;5.91;100.00
51261;BME280;61705;46.228;24.812;2024-01-07T12:28:55;95764.84;;;5.92;100.00
51261;BME280;61705;46.228;24.812;2024-01-07T12:31:22;95752.44;;;5.96;100.00
51261;BME280;61705;46.228;24.812;2024-01-07T12:33:49;95759.53;;;5.93;100.00
51261;BME280;61705;46.228;24.812;2024-01-07T12:36:16;95766.38;;;5.96;100.00
51261;BME280;61705;46.228;24.812;2024-01-07T12:38:46;95767.31;;;5.95;100.00
51261;BME280;61705;46.228;24.812;2024-01-07T12:41:12;95757.69;;;5.96;100.00
51261;BME280;61705;46.228;24.812;2024-01-07T12:43:43;95759.34;;;5.97;100.00
51261;BME280;61705;46.228;24.812;2024-01-07T12:46:18;95760.19;;;5.97;100.00
51261;BME280;61705;46.228;24.812;2024-01-07T12:48:51;95761.97;;;5.97;100.00
51261;BME280;61705;46.228;24.812;2024-01-07T12:51:17;95766.94;;;6.01;100.00
51261;BME280;61705;46.228;24.812;2024-01-07T12:53:52;95766.88;;;6.03;100.00
51261;BME280;61705;46.228;24.812;2024-01-07T12:56:35;95767.06;;;6.00;100.00
51261;BME280;61705;46.228;24.812;2024-01-07T12:59:02;95761.81;;;6.00;100.00
51261;BME280;61705;46.228;24.812;2024-01-07T13:01:31;95769.75;;;5.98;100.00